Lumberton Township, New Jersey
Current Conditions -  °F | °C
As of 12:54 PM on Thursday 30 Oct 2014 (Local Time) from KVAY Reporting Station
Few Clouds Few Clouds  
Wind Chill: 58°   Ceiling: Unl
Heat Index: 58°   Visibility: 10mi
Dew Point: 38°   Wind: 10mph
Humidity: 47%   Direction: 350°N
Pressure: 30"   Gusts: NA
Location:  39.9559°N, 74.8135°W
Report Text: KVAY 301654Z AUTO 35009KT 10SM FEW045 14/03 A3000 RMK AO2 SLP159 T01440033
Loading
Personal Weather Stations






























Interactive Weather Map
Tropical Storm Tracking
New forecast layout! Learn more

10-Day Weather Forecast

Advertisements
Track Severe Weather on mobile